.
WxDataArchive / Data Records for 2007-08-08
2007-08-07 August 2007 2007-08-09

Data Records for Wednesday, 08 August 2007

Time	Temp	Chill	HIndex	Humid	Dewpt	 Wind 	HiWind	WindDir	Rain 	Barom 
-----	----	-----	------	-----	-----	------	------	-------	-----	----- 
00:00	82.2	82.2	87.8	74	73.1	0	2	248	0.00	29.731 
00:05	82.2	82.2	87.8	74	73.1	0	2	248	0.00	29.728 
00:10	82.2	82.2	87.8	74	73.1	1	2	248	0.00	29.727 
00:15	82.0	82.0	87.6	75	73.3	0	2	248	0.00	29.723 
00:20	82.0	82.0	87.6	75	73.3	1	3	248	0.00	29.720 
00:25	82.0	82.0	87.6	75	73.3	1	3	248	0.00	29.720 
00:30	82.0	82.0	87.6	75	73.3	1	2	248	0.00	29.718 
00:35	81.8	81.8	87.1	75	73.1	0	2	248	0.00	29.718 
00:40	81.8	81.8	87.4	76	73.5	0	3	248	0.00	29.716 
00:45	81.8	81.8	87.4	76	73.5	1	3	248	0.00	29.715 
00:50	81.8	81.8	87.4	76	73.5	0	2	248	0.00	29.716 
00:55	81.6	81.6	86.9	76	73.3	0	2	248	0.00	29.716 
01:00	81.6	81.6	86.9	76	73.3	1	3	248	0.00	29.715 
01:05	81.6	81.6	86.9	76	73.3	1	3	270	0.00	29.713 
01:10	81.6	81.6	86.9	76	73.3	1	2	270	0.00	29.713 
01:15	81.4	81.4	86.7	77	73.5	1	2	270	0.00	29.711 
01:20	81.4	81.4	86.7	77	73.5	0	1	270	0.00	29.710 
01:25	81.2	81.2	86.3	77	73.3	0	3	270	0.00	29.706 
01:30	81.1	81.1	86.1	77	73.2	0	2	270	0.00	29.703 
01:35	81.1	81.1	86.3	78	73.6	0	3	270	0.00	29.703 
01:40	81.1	81.1	86.3	78	73.6	0	2	270	0.00	29.704 
01:45	81.1	81.1	86.3	78	73.6	0	1	270	0.00	29.704 
01:50	80.9	80.9	85.8	78	73.4	0	2	270	0.00	29.705 
01:55	81.1	81.1	86.3	78	73.6	1	2	270	0.00	29.705 
02:00	81.1	81.1	86.3	78	73.6	1	2	270	0.00	29.709 
02:05	81.1	81.1	86.3	78	73.6	0	1	270	0.00	29.708 
02:10	80.9	80.9	86.0	79	73.8	0	1	270	0.00	29.710 
02:15	80.7	80.7	85.6	79	73.6	0	1	270	0.00	29.712 
02:20	80.9	80.9	86.0	79	73.8	0	1	270	0.00	29.713 
02:25	80.9	80.9	86.0	79	73.8	0	1	270	0.00	29.713 
02:30	80.7	80.7	85.6	79	73.6	0	1	270	0.00	29.713 
02:35	80.7	80.7	85.8	80	73.9	0	2	270	0.00	29.715 
02:40	80.7	80.7	85.8	80	73.9	0	1	270	0.00	29.715 
02:45	80.7	80.7	85.8	80	73.9	0	1	270	0.00	29.715 
02:50	80.9	80.9	86.2	80	74.1	1	3	270	0.00	29.715 
02:55	80.9	80.9	86.2	80	74.1	0	1	248	0.00	29.718 
03:00	80.7	80.7	85.8	80	73.9	0	1	248	0.00	29.719 
03:05	80.7	80.7	85.8	80	73.9	0	1	248	0.00	29.720 
03:10	80.5	80.5	85.3	80	73.7	0	1	248	0.00	29.720 
03:15	80.5	80.5	85.5	81	74.1	0	2	248	0.00	29.717 
03:20	80.3	80.3	85.0	81	73.9	0	2	248	0.00	29.719 
03:25	80.3	80.3	85.0	81	73.9	0	2	248	0.00	29.718 
03:30	80.3	80.3	85.0	81	73.9	0	1	248	0.00	29.718 
03:35	80.3	80.3	85.0	81	73.9	0	2	248	0.00	29.723 
03:40	80.3	80.3	85.0	81	73.9	0	1	248	0.00	29.723 
03:45	80.1	80.1	84.6	81	73.7	0	1	248	0.00	29.729 
03:50	80.1	80.1	84.7	82	74.1	0	1	248	0.00	29.731 
03:55	80.1	80.1	84.7	82	74.1	0	2	315	0.00	29.737 
04:00	80.1	80.1	84.7	82	74.1	1	4	315	0.00	29.734 
04:05	79.9	79.9	84.3	82	73.9	0	2	315	0.00	29.734 
04:10	79.8	79.8	84.1	82	73.8	1	2	315	0.00	29.732 
04:15	79.4	79.4	82.9	79	72.3	1	3	292	0.00	29.728 
04:20	79.2	79.2	82.4	78	71.7	1	2	292	0.00	29.720 
04:25	78.8	78.8	81.7	78	71.3	0	2	315	0.00	29.718 
04:30	78.6	78.6	81.3	78	71.1	0	1	315	0.00	29.720 
04:35	78.3	78.3	80.8	78	70.9	0	1	315	0.00	29.718 
04:40	78.1	78.1	80.4	77	70.3	0	1	315	0.00	29.715 
04:45	77.9	77.9	80.1	77	70.1	0	1	315	0.00	29.709 
04:50	77.7	77.7	79.7	77	69.9	0	1	315	0.00	29.709 
04:55	77.7	77.7	79.7	77	69.9	0	0	---	0.00	29.709 
05:00	77.6	77.6	79.6	78	70.2	0	0	---	0.00	29.716 
05:05	77.4	77.4	79.3	78	70.0	0	0	---	0.00	29.716 
05:10	77.2	77.2	78.9	78	69.8	0	0	---	0.00	29.717 
05:15	77.2	77.2	78.9	80	70.5	0	0	---	0.00	29.718 
05:20	76.8	76.8	78.2	82	70.9	0	0	---	0.00	29.718 
05:25	76.5	76.5	77.7	82	70.6	0	0	---	0.00	29.719 
05:30	76.3	76.3	77.2	83	70.7	0	0	---	0.00	29.728 
05:35	76.0	76.0	76.7	84	70.8	0	0	---	0.00	29.732 
05:40	75.8	75.8	76.3	84	70.6	0	0	---	0.00	29.732 
05:45	75.6	75.6	76.0	84	70.4	0	0	---	0.00	29.731 
05:50	75.4	75.4	75.7	84	70.2	0	0	---	0.00	29.731 
05:55	75.3	75.3	75.5	84	70.1	0	0	---	0.00	29.736 
06:00	75.1	75.1	75.0	85	70.3	0	0	---	0.00	29.737 
06:05	75.1	75.1	75.0	85	70.3	0	0	---	0.00	29.744 
06:10	75.3	75.3	75.4	85	70.5	0	0	---	0.00	29.745 
06:15	75.3	75.3	75.4	85	70.5	0	0	---	0.00	29.747 
06:20	75.3	75.3	75.4	85	70.5	0	0	---	0.00	29.747 
06:25	75.3	75.3	75.2	86	70.8	0	0	---	0.00	29.749 
06:30	75.3	75.3	75.2	86	70.8	0	0	---	0.00	29.749 
06:35	75.3	75.3	75.2	86	70.8	0	0	---	0.00	29.746 
06:40	75.4	75.4	75.3	87	71.2	0	0	---	0.00	29.750 
06:45	75.6	75.6	75.8	86	71.1	0	0	---	0.00	29.749 
06:50	75.8	75.8	76.1	86	71.3	0	0	---	0.00	29.750 
06:55	76.3	76.3	77.1	85	71.4	0	0	---	0.00	29.750 
07:00	76.8	76.8	78.1	84	71.6	0	0	---	0.00	29.750 
07:05	77.2	77.2	78.8	83	71.6	0	0	---	0.00	29.753 
07:10	77.6	77.6	79.6	81	71.3	0	1	315	0.00	29.754 
07:15	77.6	77.6	79.6	81	71.3	0	0	---	0.00	29.758 
07:20	77.7	77.7	79.8	81	71.4	0	1	315	0.00	29.764 
07:25	77.7	77.7	79.8	81	71.4	0	0	---	0.00	29.768 
07:30	78.1	78.1	80.5	81	71.8	0	1	315	0.00	29.768 
07:35	78.6	78.6	81.4	80	71.9	0	1	315	0.00	29.768 
07:40	79.0	79.0	82.1	79	71.9	0	2	315	0.00	29.768 
07:45	79.4	79.4	82.8	78	71.9	0	2	315	0.00	29.768 
07:50	79.8	79.8	83.7	79	72.7	0	2	315	0.00	29.769 
07:55	80.1	80.1	84.0	77	72.2	0	1	315	0.00	29.773 
08:00	80.1	80.1	84.0	77	72.2	0	1	315	0.00	29.777 
08:05	80.5	80.5	85.0	78	73.0	1	2	315	0.00	29.777 
08:10	80.9	80.9	85.8	78	73.4	0	2	315	0.00	29.780 
08:15	81.2	81.2	86.3	77	73.3	0	1	315	0.00	29.779 
08:20	81.8	81.8	87.6	77	73.9	0	1	315	0.00	29.777 
08:25	81.8	81.8	87.4	76	73.5	0	2	315	0.00	29.779 
08:30	82.0	82.0	87.8	76	73.7	0	2	315	0.00	29.779 
08:35	82.4	82.4	88.2	74	73.3	0	1	315	0.00	29.778 
08:40	82.8	82.8	89.1	74	73.6	0	2	315	0.00	29.779 
08:45	83.0	83.0	89.8	75	74.2	0	2	315	0.00	29.779 
08:50	83.8	83.8	91.0	73	74.2	0	1	315	0.00	29.780 
08:55	84.1	84.1	91.0	71	73.7	0	2	315	0.00	29.779 
09:00	84.3	84.3	91.1	70	73.4	0	1	315	0.00	29.779 
09:05	84.5	84.5	90.5	67	72.3	0	2	315	0.00	29.780 
09:10	84.7	84.7	92.4	71	74.2	0	1	315	0.00	29.779 
09:15	84.7	84.7	92.0	70	73.8	0	2	315	0.00	29.779 
09:20	84.9	84.9	92.8	71	74.4	0	1	315	0.00	29.779 
09:25	85.3	85.3	93.0	69	73.9	1	3	248	0.00	29.779 
09:30	85.7	85.7	93.5	68	73.9	0	1	248	0.00	29.779 
09:35	85.7	85.7	93.5	68	73.9	0	2	248	0.00	29.779 
09:40	85.9	85.9	93.2	66	73.2	0	2	248	0.00	29.778 
09:45	85.5	85.5	91.9	65	72.4	0	1	248	0.00	29.777 
09:50	85.5	85.5	91.9	65	72.4	0	1	248	0.00	29.778 
09:55	85.9	85.9	94.0	68	74.1	1	2	248	0.00	29.778 
10:00	86.5	86.5	93.7	64	72.8	1	2	248	0.00	29.776 
10:05	86.7	86.7	94.5	65	73.5	0	2	248	0.00	29.777 
10:10	87.0	87.0	95.2	65	73.8	0	3	158	0.00	29.779 
10:15	87.2	87.2	96.1	66	74.4	1	3	135	0.00	29.780 
10:20	87.2	87.2	96.6	67	74.9	1	3	112	0.00	29.780 
10:25	87.6	87.6	97.1	66	74.8	0	2	90	0.00	29.779 
10:30	87.6	87.6	96.6	65	74.3	0	1	90	0.00	29.783 
10:35	87.0	87.0	96.1	67	74.7	0	1	90	0.00	29.786 
10:40	85.9	85.9	93.6	67	73.6	0	1	90	0.00	29.787 
10:45	85.7	85.7	92.7	66	73.0	0	1	90	0.00	29.786 
10:50	86.3	86.3	94.9	68	74.5	0	1	90	0.00	29.787 
10:55	87.2	87.2	96.1	66	74.4	0	2	90	0.00	29.783 
11:00	88.0	88.0	96.6	63	73.8	0	1	248	0.00	29.782 
11:05	88.0	88.0	96.6	63	73.8	0	2	248	0.00	29.787 
11:10	88.4	88.4	98.5	65	75.1	0	1	248	0.00	29.786 
11:15	88.2	88.2	97.0	63	74.0	0	1	248	0.00	29.783 
11:20	88.2	88.2	96.5	62	73.5	0	2	202	0.00	29.781 
11:25	88.2	88.2	97.0	63	74.0	0	2	202	0.00	29.780 
11:30	88.2	88.2	96.5	62	73.5	1	3	112	0.00	29.781 
11:35	88.2	88.2	97.0	63	74.0	1	2	112	0.00	29.782 
11:40	88.2	88.2	97.0	63	74.0	0	1	112	0.00	29.781 
11:45	88.4	88.4	99.1	66	75.6	0	1	90	0.00	29.782 
11:50	88.8	88.8	99.5	65	75.5	1	3	90	0.00	29.782 
11:55	89.0	89.0	100.6	66	76.1	0	1	68	0.00	29.783 
12:00	89.5	89.5	99.0	61	74.2	0	1	68	0.00	29.779 
12:05	90.1	90.1	99.9	60	74.3	1	3	225	0.00	29.780 
12:10	89.9	89.9	99.4	60	74.1	1	3	315	0.00	29.781 
12:15	89.5	89.5	99.0	61	74.2	1	3	292	0.00	29.782 
12:20	89.5	89.5	99.0	61	74.2	1	3	112	0.00	29.779 
12:25	89.5	89.5	99.0	61	74.2	0	3	112	0.00	29.781 
12:30	89.5	89.5	98.0	59	73.2	1	3	292	0.00	29.780 
12:35	89.7	89.7	98.4	59	73.4	1	4	270	0.00	29.781 
12:40	89.9	89.9	98.9	59	73.6	1	3	270	0.00	29.781 
12:45	90.3	90.3	99.8	59	74.0	1	2	270	0.00	29.780 
12:50	90.5	90.5	100.3	59	74.2	0	1	270	0.00	29.778 
12:55	91.0	91.0	104.0	63	76.6	0	2	338	0.00	29.779 
13:00	91.2	91.2	100.2	56	73.3	1	4	248	0.00	29.780 
13:05	91.2	91.2	98.5	53	71.6	1	3	292	0.00	29.778 
13:10	91.0	91.0	99.2	55	72.5	1	2	292	0.00	29.777 
13:15	91.0	91.0	99.7	56	73.1	0	2	292	0.00	29.776 
13:20	90.7	90.7	97.4	53	71.2	1	3	292	0.00	29.777 
13:25	90.7	90.7	95.9	50	69.5	1	3	292	0.00	29.778 
13:30	90.5	90.5	96.5	52	70.4	1	3	315	0.00	29.777 
13:35	90.5	90.5	95.1	49	68.7	0	2	315	0.00	29.775 
13:40	91.2	91.2	98.0	52	71.1	0	2	315	0.00	29.771 
13:45	91.6	91.6	102.4	58	74.7	0	1	315	0.00	29.772 
13:50	91.6	91.6	99.9	54	72.6	0	3	315	0.00	29.771 
13:55	91.4	91.4	98.4	52	71.3	1	2	292	0.00	29.769 
14:00	91.6	91.6	101.1	56	73.6	0	1	292	0.00	29.764 
14:05	91.8	91.8	101.0	55	73.3	1	3	248	0.00	29.763 
14:10	91.4	91.4	97.8	51	70.7	0	2	270	0.00	29.762 
14:15	91.6	91.6	101.1	56	73.6	0	3	292	0.00	29.760 
14:20	92.1	92.1	101.1	54	73.0	0	3	315	0.00	29.760 
14:25	92.3	92.3	101.5	54	73.2	0	3	90	0.00	29.758 
14:30	92.3	92.3	102.2	55	73.7	1	3	90	0.00	29.755 
14:35	92.1	92.1	99.3	51	71.3	1	3	292	0.00	29.759 
14:40	92.3	92.3	100.9	53	72.6	1	3	270	0.00	29.761 
14:45	92.3	92.3	99.7	51	71.5	1	3	292	0.00	29.761 
14:50	92.5	92.5	102.0	54	73.4	0	2	45	0.00	29.756 
14:55	92.5	92.5	100.2	51	71.7	0	2	45	0.00	29.755 
15:00	92.3	92.3	100.9	53	72.6	0	2	45	0.00	29.756 
15:05	92.1	92.1	100.5	53	72.5	0	1	45	0.00	29.759 
15:10	91.6	91.6	98.3	51	70.9	1	2	22	0.00	29.762 
15:15	91.2	91.2	98.0	52	71.1	1	2	0	0.00	29.763 
15:20	91.2	91.2	99.0	54	72.2	1	4	270	0.00	29.762 
15:25	91.6	91.6	99.4	53	72.0	0	3	270	0.00	29.761 
15:30	91.8	91.8	99.8	53	72.2	0	3	338	0.00	29.754 
15:35	91.6	91.6	99.9	54	72.6	0	1	338	0.00	29.752 
15:40	91.6	91.6	100.5	55	73.1	0	2	338	0.00	29.748 
15:45	91.2	91.2	98.0	52	71.1	0	1	0	0.00	29.749 
15:50	91.6	91.6	99.9	54	72.6	0	1	0	0.00	29.748 
15:55	91.8	91.8	98.1	50	70.5	1	3	315	0.00	29.746 
16:00	91.6	91.6	97.7	50	70.3	1	2	315	0.00	29.744 
16:05	91.6	91.6	98.8	52	71.4	0	1	315	0.00	29.745 
16:10	91.6	91.6	99.4	53	72.0	0	2	315	0.00	29.742 
16:15	91.0	91.0	98.6	54	72.0	1	2	315	0.00	29.744 
16:20	90.5	90.5	98.1	55	72.1	0	1	315	0.00	29.746 
16:25	90.1	90.1	97.2	55	71.7	0	2	315	0.00	29.749 
16:30	90.3	90.3	98.2	56	72.4	0	1	315	0.00	29.749 
16:35	90.7	90.7	99.1	56	72.8	0	2	315	0.00	29.748 
16:40	91.0	91.0	99.7	56	73.1	0	1	315	0.00	29.747 
16:45	91.0	91.0	98.1	53	71.4	0	2	315	0.00	29.747 
16:50	91.0	91.0	100.3	57	73.6	0	1	315	0.00	29.747 
16:55	90.7	90.7	99.6	57	73.3	0	2	315	0.00	29.749 
17:00	90.1	90.1	98.3	57	72.8	0	2	315	0.00	29.748 
17:05	89.9	89.9	98.9	59	73.6	0	1	315	0.00	29.751 
17:10	89.9	89.9	98.3	58	73.1	0	3	292	0.00	29.750 
17:15	89.9	89.9	98.9	59	73.6	0	1	292	0.00	29.750 
17:20	89.9	89.9	98.3	58	73.1	0	2	292	0.00	29.750 
17:25	89.7	89.7	98.4	59	73.4	0	2	292	0.00	29.750 
17:30	89.5	89.5	98.0	59	73.2	0	2	292	0.00	29.750 
17:35	89.3	89.3	98.0	60	73.6	0	1	292	0.00	29.751 
17:40	89.0	89.0	96.4	58	72.3	0	1	292	0.00	29.751 
17:45	88.8	88.8	96.4	59	72.6	0	2	315	0.00	29.752 
17:50	88.6	88.6	95.5	58	71.9	0	2	315	0.00	29.756 
17:55	88.6	88.6	96.0	59	72.4	0	2	315	0.00	29.760 
18:00	88.4	88.4	95.5	59	72.2	0	1	315	0.00	29.760 
18:05	88.2	88.2	95.1	59	72.0	0	1	315	0.00	29.758 
18:10	88.0	88.0	95.1	60	72.3	0	0	---	0.00	29.762 
18:15	88.0	88.0	95.6	61	72.8	0	1	315	0.00	29.764 
18:20	87.8	87.8	95.6	62	73.1	0	0	---	0.00	29.766 
18:25	87.8	87.8	95.2	61	72.6	0	1	315	0.00	29.767 
18:30	87.8	87.8	94.7	60	72.1	0	1	315	0.00	29.766 
18:35	87.8	87.8	96.1	63	73.6	0	1	315	0.00	29.763 
18:40	87.6	87.6	95.7	63	73.4	0	0	---	0.00	29.765 
18:45	87.0	87.0	94.8	64	73.3	0	1	315	0.00	29.767 
18:50	86.7	86.7	94.5	65	73.5	0	0	---	0.00	29.769 
18:55	86.3	86.3	93.6	65	73.1	0	0	---	0.00	29.770 
19:00	86.1	86.1	93.2	65	72.9	0	0	---	0.00	29.771 
19:05	85.9	85.9	93.2	66	73.2	0	0	---	0.00	29.772 
19:10	85.5	85.5	92.7	67	73.3	0	0	---	0.00	29.776 
19:15	85.5	85.5	92.7	67	73.3	0	0	---	0.00	29.777 
19:20	85.3	85.3	92.2	67	73.1	0	0	---	0.00	29.781 
19:25	85.1	85.1	91.8	67	72.9	0	0	---	0.00	29.781 
19:30	85.1	85.1	92.2	68	73.3	0	0	---	0.00	29.780 
19:35	84.9	84.9	91.7	68	73.1	0	0	---	0.00	29.779 
19:40	84.9	84.9	92.1	69	73.6	0	0	---	0.00	29.779 
19:45	84.7	84.7	91.3	68	72.9	0	0	---	0.00	29.779 
19:50	84.7	84.7	91.3	68	72.9	0	0	---	0.00	29.782 
19:55	84.7	84.7	91.3	68	72.9	0	0	---	0.00	29.783 
20:00	84.5	84.5	90.5	67	72.3	0	0	---	0.00	29.782 
20:05	84.5	84.5	90.9	68	72.7	0	0	---	0.00	29.779 
20:10	84.3	84.3	90.1	67	72.1	0	0	---	0.00	29.774 
20:15	84.3	84.3	90.1	67	72.1	0	0	---	0.00	29.774 
20:20	84.3	84.3	90.1	67	72.1	0	0	---	0.00	29.775 
20:25	84.1	84.1	90.0	68	72.4	0	0	---	0.00	29.775 
20:30	84.1	84.1	90.0	68	72.4	0	0	---	0.00	29.773 
20:35	84.0	84.0	89.8	68	72.3	0	0	---	0.00	29.772 
20:40	83.8	83.8	89.4	68	72.1	0	0	---	0.00	29.772 
20:45	83.6	83.6	89.3	69	72.3	0	0	---	0.00	29.775 
20:50	83.4	83.4	88.9	69	72.1	0	0	---	0.00	29.773 
20:55	83.4	83.4	89.2	70	72.6	0	1	315	0.00	29.767 
21:00	83.4	83.4	89.5	71	73.0	0	1	315	0.00	29.764 
21:05	83.4	83.4	89.5	71	73.0	0	0	---	0.00	29.763 
21:10	83.2	83.2	89.1	71	72.8	0	0	---	0.00	29.766 
21:15	83.0	83.0	88.7	71	72.6	0	0	---	0.00	29.767 
21:20	82.8	82.8	88.2	71	72.4	0	0	---	0.00	29.769 
21:25	82.6	82.6	87.8	71	72.2	0	0	---	0.00	29.768 
21:30	82.4	82.4	87.7	72	72.4	0	0	---	0.00	29.771 
21:35	82.2	82.2	87.5	73	72.7	0	0	---	0.00	29.768 
21:40	82.2	82.2	87.5	73	72.7	0	0	---	0.00	29.766 
21:45	82.0	82.0	87.3	74	72.9	0	0	---	0.00	29.768 
21:50	81.8	81.8	86.9	74	72.7	0	0	---	0.00	29.767 
21:55	81.8	81.8	87.1	75	73.1	0	0	---	0.00	29.767 
22:00	81.6	81.6	86.7	75	72.9	0	0	---	0.00	29.766 
22:05	81.6	81.6	86.9	76	73.3	0	0	---	0.00	29.770 
22:10	81.6	81.6	87.2	77	73.7	0	0	---	0.00	29.764 
22:15	81.4	81.4	86.7	77	73.5	0	0	---	0.00	29.768 
22:20	81.4	81.4	86.7	77	73.5	0	0	---	0.00	29.772 
22:25	81.2	81.2	86.3	77	73.3	0	0	---	0.00	29.772 
22:30	81.1	81.1	86.3	78	73.6	0	0	---	0.00	29.774 
22:35	80.9	80.9	85.8	78	73.4	0	0	---	0.00	29.772 
22:40	80.7	80.7	85.6	79	73.6	0	0	---	0.00	29.768 
22:45	80.7	80.7	85.6	79	73.6	0	0	---	0.00	29.767 
22:50	80.5	80.5	85.3	80	73.7	0	0	---	0.00	29.767 
22:55	80.5	80.5	85.3	80	73.7	0	0	---	0.00	29.769 
23:00	80.5	80.5	85.3	80	73.7	0	0	---	0.00	29.770 
23:05	80.5	80.5	85.3	80	73.7	0	0	---	0.00	29.769 
23:10	80.5	80.5	85.3	80	73.7	0	0	---	0.00	29.773 
23:15	80.5	80.5	85.3	80	73.7	0	0	---	0.00	29.774 
23:20	80.3	80.3	84.9	80	73.5	0	0	---	0.00	29.775 
23:25	80.3	80.3	84.9	80	73.5	0	0	---	0.00	29.775 
23:30	80.1	80.1	84.4	80	73.4	0	0	---	0.00	29.774 
23:35	79.9	79.9	84.1	81	73.5	0	0	---	0.00	29.774 
23:40	79.8	79.8	83.9	81	73.4	0	0	---	0.00	29.774 
23:45	79.8	79.8	84.1	82	73.8	0	0	---	0.00	29.776 
23:50	79.6	79.6	83.6	82	73.6	0	0	---	0.00	29.776 
23:55	79.6	79.6	83.6	82	73.6	0	0	---	0.00	29.777 

CoCoRaHS
IN-AL-39
A2 Web Hosting
Creative Commons License
GoDaddy
Look for:

loaded 2017-12-13 02:37:26 • last modified 2010-11-18 10:43:29
Privacy PolicyDisclaimer
• wx.awcolley.com is powered by PmWiki v.2002016 •
• all content (unless otherwise noted) © 2017 A W Colley